createdAt,value
2023-03-15T00:01:33.747Z,3.37
2023-03-15T00:04:17.633Z,3.70
2023-03-15T00:07:03.365Z,3.70
2023-03-15T00:09:47.120Z,3.43
2023-03-15T00:12:30.964Z,3.30
2023-03-15T00:15:15.796Z,3.40
2023-03-15T00:17:59.666Z,3.20
2023-03-15T00:20:43.965Z,3.00
2023-03-15T00:23:29.136Z,3.60
2023-03-15T00:26:13.285Z,3.17
2023-03-15T00:28:56.976Z,2.90
2023-03-15T00:31:40.684Z,3.23
2023-03-15T00:34:26.676Z,3.73
2023-03-15T00:37:11.549Z,3.00
2023-03-15T00:39:56.769Z,2.70
2023-03-15T00:42:40.701Z,3.00
2023-03-15T00:45:24.733Z,2.83
2023-03-15T00:48:08.682Z,3.03
2023-03-15T00:50:52.427Z,2.97
2023-03-15T00:53:38.008Z,3.23
2023-03-15T00:56:25.240Z,2.83
2023-03-15T00:59:09.043Z,2.93
2023-03-15T01:01:52.994Z,3.20
2023-03-15T01:04:39.292Z,2.93
2023-03-15T01:07:23.026Z,3.37
2023-03-15T01:10:09.109Z,2.83
2023-03-15T01:12:54.257Z,3.23
2023-03-15T01:15:38.028Z,2.90
2023-03-15T01:18:21.877Z,3.00
2023-03-15T01:21:08.246Z,3.00
2023-03-15T01:23:52.346Z,3.00
2023-03-15T01:26:38.868Z,2.93
2023-03-15T01:29:24.263Z,2.73
2023-03-15T01:32:08.495Z,3.00
2023-03-15T01:34:52.617Z,2.97
2023-03-15T01:37:36.489Z,2.97
2023-03-15T01:40:21.116Z,2.80
2023-03-15T01:43:19.224Z,3.10
2023-03-15T01:46:27.978Z,3.00
2023-03-15T01:49:24.026Z,3.43
2023-03-15T01:52:13.069Z,3.13
2023-03-15T01:55:08.858Z,3.07
2023-03-15T01:57:58.689Z,3.43
2023-03-15T02:00:44.921Z,3.47
2023-03-15T02:03:38.285Z,3.53
2023-03-15T02:06:23.418Z,3.23
2023-03-15T02:09:15.165Z,3.23
2023-03-15T02:12:00.288Z,5.33
2023-03-15T02:14:44.799Z,7.30
2023-03-15T02:17:38.148Z,5.60
2023-03-15T02:20:34.841Z,4.47
2023-03-15T02:23:20.190Z,4.50
2023-03-15T02:26:15.051Z,4.53
2023-03-15T02:29:00.506Z,3.80
2023-03-15T02:31:45.044Z,4.27
2023-03-15T02:34:28.805Z,4.23
2023-03-15T02:37:12.556Z,3.93
2023-03-15T02:39:56.654Z,4.00
2023-03-15T02:42:42.628Z,4.60
2023-03-15T02:45:29.030Z,4.33
2023-03-15T02:48:13.804Z,4.60
2023-03-15T02:50:57.707Z,5.60
2023-03-15T02:53:41.401Z,4.40
2023-03-15T02:56:25.322Z,4.90
2023-03-15T02:59:09.452Z,4.80
2023-03-15T03:01:55.827Z,4.80
2023-03-15T03:04:39.750Z,4.80
2023-03-15T03:07:23.615Z,4.60
2023-03-15T03:10:17.847Z,3.93
2023-03-15T03:13:12.333Z,4.43
2023-03-15T03:15:59.692Z,4.30
2023-03-15T03:18:48.079Z,3.80
2023-03-15T03:21:32.476Z,5.40
2023-03-15T03:24:16.653Z,4.90
2023-03-15T03:27:00.409Z,3.93
2023-03-15T03:29:47.403Z,3.53
2023-03-15T03:32:33.105Z,4.20
2023-03-15T03:35:18.476Z,3.40
2023-03-15T03:38:02.314Z,3.70
2023-03-15T03:40:51.751Z,3.80
2023-03-15T03:43:35.747Z,3.40
2023-03-15T03:46:19.893Z,3.30
2023-03-15T03:49:08.572Z,4.00
2023-03-15T03:51:53.650Z,3.57
2023-03-15T03:54:37.513Z,3.47
2023-03-15T03:57:21.706Z,3.60
2023-03-15T04:00:06.866Z,3.30
2023-03-15T04:02:58.812Z,2.47
2023-03-15T04:05:43.057Z,3.80
2023-03-15T04:08:34.342Z,3.50
2023-03-15T04:11:18.721Z,3.43
2023-03-15T04:14:10.297Z,3.33
2023-03-15T04:16:55.620Z,2.70
2023-03-15T04:19:40.219Z,2.77
2023-03-15T04:22:25.797Z,3.07
2023-03-15T04:25:31.216Z,2.90
2023-03-15T04:28:39.083Z,3.47
2023-03-15T04:31:43.364Z,3.27
2023-03-15T04:34:51.508Z,2.73
2023-03-15T04:37:59.103Z,3.80
2023-03-15T04:41:10.953Z,2.83
2023-03-15T04:44:16.473Z,2.93
2023-03-15T04:47:22.842Z,3.00
2023-03-15T04:50:40.096Z,2.77
2023-03-15T04:53:43.576Z,3.20
2023-03-15T04:56:47.200Z,3.60
2023-03-15T04:59:51.240Z,3.03
2023-03-15T05:02:52.287Z,3.17
2023-03-15T05:06:00.139Z,3.20
2023-03-15T05:09:04.583Z,3.40
2023-03-15T05:11:49.833Z,3.60
2023-03-15T05:15:12.903Z,3.90
2023-03-15T05:18:19.222Z,3.67
2023-03-15T05:21:25.791Z,3.30
2023-03-15T05:24:32.721Z,3.80
2023-03-15T05:27:39.973Z,2.87
2023-03-15T05:30:32.143Z,3.20
2023-03-15T05:33:26.384Z,2.83
2023-03-15T05:36:29.477Z,3.23
2023-03-15T05:39:34.801Z,3.50
2023-03-15T05:42:25.458Z,3.50
2023-03-15T05:45:36.798Z,3.47
2023-03-15T05:48:39.187Z,4.10
2023-03-15T05:51:45.764Z,3.20
2023-03-15T05:54:36.400Z,6.17
2023-03-15T05:57:58.760Z,3.37
2023-03-15T06:00:55.782Z,3.47
2023-03-15T06:03:59.588Z,5.03
2023-03-15T06:06:47.452Z,4.87
2023-03-15T06:09:31.761Z,3.50
2023-03-15T06:12:15.938Z,4.33
2023-03-15T06:15:00.485Z,3.40
2023-03-15T06:17:49.056Z,3.57
2023-03-15T06:20:33.428Z,2.87
2023-03-15T06:23:23.932Z,2.73
2023-03-15T06:26:07.847Z,3.60
2023-03-15T06:28:52.044Z,5.23
2023-03-15T06:31:36.831Z,2.80
2023-03-15T06:34:25.762Z,2.63
2023-03-15T06:37:16.360Z,3.30
2023-03-15T06:40:02.079Z,3.27
2023-03-15T06:42:46.745Z,3.20
2023-03-15T06:45:37.159Z,3.50
2023-03-15T06:48:22.255Z,3.67
2023-03-15T06:51:07.581Z,3.70
2023-03-15T06:53:51.581Z,3.50
2023-03-15T06:56:37.512Z,4.50
2023-03-15T06:59:21.398Z,3.53
2023-03-15T07:02:05.778Z,4.07
2023-03-15T07:04:49.727Z,3.70
2023-03-15T07:07:35.068Z,5.07
2023-03-15T07:10:19.139Z,6.77
2023-03-15T07:13:02.948Z,4.47
2023-03-15T07:15:47.868Z,5.60
2023-03-15T07:18:34.465Z,15.23
2023-03-15T07:21:18.644Z,5.43
2023-03-15T07:24:04.503Z,4.50
2023-03-15T07:26:48.847Z,6.03
2023-03-15T07:29:33.925Z,4.53
2023-03-15T07:32:18.536Z,3.37
2023-03-15T07:35:02.546Z,4.00
2023-03-15T07:37:47.417Z,3.67
2023-03-15T07:40:33.001Z,3.00
2023-03-15T07:43:17.675Z,4.73
2023-03-15T07:46:07.130Z,4.07
2023-03-15T07:48:51.164Z,3.90
2023-03-15T07:51:35.196Z,4.23
2023-03-15T07:54:19.593Z,4.33
2023-03-15T07:57:05.667Z,4.70
2023-03-15T07:59:49.467Z,19.87
2023-03-15T08:02:33.312Z,13.87
2023-03-15T08:05:19.075Z,12.37
2023-03-15T08:08:03.248Z,11.00
2023-03-15T08:10:47.349Z,4.20
2023-03-15T08:13:32.826Z,5.17
2023-03-15T08:16:16.666Z,8.90
2023-03-15T08:19:00.881Z,8.97
2023-03-15T08:21:45.463Z,7.50
2023-03-15T08:24:29.945Z,5.60
2023-03-15T08:27:13.768Z,7.13
2023-03-15T08:29:59.105Z,5.80
2023-03-15T08:32:43.849Z,11.43
2023-03-15T08:35:27.731Z,9.57
2023-03-15T08:38:12.518Z,8.77
2023-03-15T08:41:00.064Z,6.23
2023-03-15T08:43:43.869Z,9.27
2023-03-15T08:46:29.382Z,5.50
2023-03-15T08:49:13.442Z,8.27
2023-03-15T08:51:57.415Z,8.30
2023-03-15T08:54:41.488Z,4.40
2023-03-15T08:57:27.360Z,7.60
2023-03-15T09:00:17.407Z,6.50
2023-03-15T09:03:02.563Z,5.43
2023-03-15T09:05:46.777Z,4.63
2023-03-15T09:08:33.423Z,5.80
2023-03-15T09:11:17.487Z,5.53
2023-03-15T09:14:01.524Z,5.87
2023-03-15T09:16:45.435Z,7.03
2023-03-15T09:19:32.454Z,6.40
2023-03-15T09:22:23.861Z,7.00
2023-03-15T09:25:19.432Z,7.33
2023-03-15T09:28:03.452Z,5.90
2023-03-15T09:30:47.364Z,9.13
2023-03-15T09:33:33.219Z,15.97
2023-03-15T09:36:18.453Z,6.50
2023-03-15T09:39:02.818Z,6.20
2023-03-15T09:41:49.796Z,8.30
2023-03-15T09:44:46.067Z,6.87
2023-03-15T09:47:38.597Z,6.63
2023-03-15T09:50:28.254Z,7.80
2023-03-15T09:53:18.565Z,9.17
2023-03-15T09:56:02.305Z,8.60
2023-03-15T09:58:46.770Z,9.40
2023-03-15T10:01:33.685Z,9.03
2023-03-15T10:04:28.787Z,10.57
2023-03-15T10:07:16.682Z,10.70
2023-03-15T10:10:04.997Z,9.90
2023-03-15T10:13:00.103Z,11.33
2023-03-15T10:15:54.035Z,10.70
2023-03-15T10:18:54.286Z,10.67
2023-03-15T10:21:51.240Z,11.87
2023-03-15T10:24:39.936Z,11.50
2023-03-15T10:27:33.378Z,13.33
2023-03-15T10:30:20.703Z,11.43
2023-03-15T10:33:12.193Z,14.93
2023-03-15T10:36:09.776Z,12.30
2023-03-15T10:38:54.434Z,12.40
2023-03-15T10:41:41.977Z,13.17
2023-03-15T10:44:28.474Z,11.77
2023-03-15T10:47:23.646Z,11.23
2023-03-15T10:50:08.859Z,11.93
2023-03-15T10:52:56.749Z,12.00
2023-03-15T10:55:45.532Z,11.10
2023-03-15T10:58:34.709Z,11.17
2023-03-15T11:01:27.975Z,11.53
2023-03-15T11:04:17.292Z,11.87
2023-03-15T11:07:03.439Z,11.63
2023-03-15T11:09:54.616Z,12.30
2023-03-15T11:12:38.530Z,13.73
2023-03-15T11:15:22.268Z,16.40
2023-03-15T11:18:09.460Z,20.53
2023-03-15T11:20:54.924Z,28.20
2023-03-15T11:23:41.530Z,17.73
2023-03-15T11:26:32.491Z,12.10
2023-03-15T11:29:22.880Z,12.90
2023-03-15T11:32:15.367Z,11.03
2023-03-15T11:35:05.415Z,10.70
2023-03-15T11:37:56.721Z,10.73
2023-03-15T11:40:45.227Z,12.60
2023-03-15T11:43:34.171Z,11.30
2023-03-15T11:46:25.966Z,9.90
2023-03-15T11:49:17.163Z,10.23
2023-03-15T11:52:02.280Z,9.67
2023-03-15T11:54:47.364Z,10.67
2023-03-15T11:57:45.814Z,8.20
2023-03-15T12:00:51.620Z,9.53
2023-03-15T12:03:41.187Z,9.77
2023-03-15T12:06:40.582Z,9.30
2023-03-15T12:09:52.728Z,10.80
2023-03-15T12:12:38.170Z,14.07
2023-03-15T12:15:47.900Z,12.40
2023-03-15T12:18:34.852Z,16.63
2023-03-15T12:21:23.300Z,15.23
2023-03-15T12:24:09.354Z,10.50
2023-03-15T12:27:02.674Z,10.37
2023-03-15T12:29:48.395Z,10.83
2023-03-15T12:32:32.477Z,16.90
2023-03-15T12:35:21.192Z,11.47
2023-03-15T12:38:05.184Z,14.30
2023-03-15T12:40:53.918Z,16.07
2023-03-15T12:43:41.249Z,17.30
2023-03-15T12:47:00.008Z,13.03
2023-03-15T12:49:44.953Z,13.47
2023-03-15T12:52:44.265Z,11.43
2023-03-15T12:55:33.001Z,11.73
2023-03-15T12:58:20.044Z,12.43
2023-03-15T13:01:07.622Z,11.77
2023-03-15T13:03:56.666Z,13.93
2023-03-15T13:06:52.133Z,12.97
2023-03-15T13:09:51.134Z,12.50
2023-03-15T13:12:41.784Z,13.87
2023-03-15T13:15:29.996Z,18.43
2023-03-15T13:18:19.803Z,13.43
2023-03-15T13:21:15.756Z,11.27
2023-03-15T13:24:00.907Z,13.40
2023-03-15T13:26:55.156Z,12.23
2023-03-15T13:29:39.125Z,14.10
2023-03-15T13:32:24.773Z,18.07
2023-03-15T13:35:14.201Z,14.43
2023-03-15T13:38:07.552Z,15.83
2023-03-15T13:40:51.386Z,14.60
2023-03-15T13:43:37.054Z,19.33
2023-03-15T13:46:24.065Z,13.47
2023-03-15T13:49:08.202Z,13.13
2023-03-15T13:51:54.445Z,14.23
2023-03-15T13:54:38.968Z,12.83
2023-03-15T13:57:24.690Z,12.23
2023-03-15T14:00:12.529Z,10.90
2023-03-15T14:02:59.889Z,11.40
2023-03-15T14:05:47.519Z,10.87
2023-03-15T14:08:36.124Z,13.00
2023-03-15T14:11:32.604Z,10.77
2023-03-15T14:14:23.776Z,10.60
2023-03-15T14:17:18.555Z,14.80
2023-03-15T14:20:09.271Z,14.17
2023-03-15T14:22:53.242Z,18.50
2023-03-15T14:25:38.798Z,12.23
2023-03-15T14:28:24.586Z,15.90
2023-03-15T14:31:08.903Z,15.93
2023-03-15T14:33:55.619Z,21.90
2023-03-15T14:36:43.501Z,46.50
2023-03-15T14:39:31.321Z,21.97
2023-03-15T14:42:16.599Z,15.87
2023-03-15T14:45:00.541Z,15.10
2023-03-15T14:47:56.640Z,14.33
2023-03-15T14:50:43.253Z,11.73
2023-03-15T14:53:32.335Z,13.87
2023-03-15T14:56:18.646Z,13.23
2023-03-15T14:59:12.291Z,13.10
2023-03-15T15:02:00.446Z,12.43
2023-03-15T15:04:44.635Z,13.47
2023-03-15T15:07:28.730Z,14.70
2023-03-15T15:10:13.201Z,15.67
2023-03-15T15:13:06.025Z,15.17
2023-03-15T15:15:56.072Z,16.53
2023-03-15T15:18:40.628Z,14.53
2023-03-15T15:21:28.468Z,12.80
2023-03-15T15:24:15.691Z,15.00
2023-03-15T15:26:59.471Z,16.03
2023-03-15T15:29:43.336Z,16.80
2023-03-15T15:32:28.645Z,15.83
2023-03-15T15:35:14.073Z,15.33
2023-03-15T15:37:58.537Z,17.77
2023-03-15T15:40:43.143Z,17.60
2023-03-15T15:43:27.964Z,21.17
2023-03-15T15:46:13.655Z,20.63
2023-03-15T15:48:59.211Z,19.33
2023-03-15T15:51:46.110Z,21.80
2023-03-15T15:54:31.776Z,18.17
2023-03-15T15:57:16.565Z,17.00
2023-03-15T16:00:01.505Z,18.13
2023-03-15T16:02:47.426Z,16.07
2023-03-15T16:05:34.323Z,19.23
2023-03-15T16:08:23.675Z,21.13
2023-03-15T16:11:08.986Z,21.90
2023-03-15T16:13:55.081Z,20.33
2023-03-15T16:16:39.256Z,24.60
2023-03-15T16:19:23.588Z,21.63
2023-03-15T16:22:09.431Z,25.40
2023-03-15T16:24:56.055Z,24.97
2023-03-15T16:27:40.059Z,26.23
2023-03-15T16:30:26.437Z,24.93
2023-03-15T16:33:16.373Z,23.30
2023-03-15T16:36:01.948Z,27.27
2023-03-15T16:38:47.673Z,28.87
2023-03-15T16:41:31.770Z,31.93
2023-03-15T16:44:17.400Z,30.20
2023-03-15T16:47:01.542Z,29.07
2023-03-15T16:49:45.809Z,27.33
2023-03-15T16:52:30.401Z,26.77
2023-03-15T16:55:18.538Z,44.63
2023-03-15T16:58:04.510Z,32.10
2023-03-15T17:00:48.788Z,34.70
2023-03-15T17:03:34.000Z,35.07
2023-03-15T17:06:23.322Z,35.73
2023-03-15T17:09:10.639Z,33.73
2023-03-15T17:11:56.406Z,34.03
2023-03-15T17:14:41.284Z,34.20
2023-03-15T17:17:26.988Z,36.47
2023-03-15T17:20:14.245Z,56.57
2023-03-15T17:23:03.961Z,55.30
2023-03-15T17:25:49.626Z,39.70
2023-03-15T17:28:35.129Z,42.00
2023-03-15T17:31:25.742Z,40.00
2023-03-15T17:34:09.958Z,48.73
2023-03-15T17:36:56.113Z,51.23
2023-03-15T17:39:40.291Z,57.97
2023-03-15T17:42:24.406Z,45.20
2023-03-15T17:45:17.525Z,36.00
2023-03-15T17:48:02.174Z,33.23
2023-03-15T17:50:46.170Z,32.70
2023-03-15T17:53:29.899Z,46.47
2023-03-15T17:56:14.130Z,41.07
2023-03-15T17:58:58.466Z,48.63
2023-03-15T18:01:45.813Z,36.50
2023-03-15T18:04:29.638Z,33.67
2023-03-15T18:07:13.434Z,29.60
2023-03-15T18:09:57.457Z,37.93
2023-03-15T18:12:43.228Z,38.00
2023-03-15T18:15:27.064Z,40.90
2023-03-15T18:18:12.367Z,43.77
2023-03-15T18:20:56.249Z,47.97
2023-03-15T18:23:40.164Z,29.10
2023-03-15T18:26:24.403Z,28.40
2023-03-15T18:29:08.221Z,28.67
2023-03-15T18:31:52.502Z,26.87
2023-03-15T18:34:38.087Z,34.40
2023-03-15T18:37:21.996Z,31.23
2023-03-15T18:40:06.980Z,27.13
2023-03-15T18:42:51.038Z,29.77
2023-03-15T18:45:36.762Z,29.23
2023-03-15T18:48:34.111Z,25.13
2023-03-15T18:51:28.317Z,25.43
2023-03-15T18:54:12.211Z,27.73
2023-03-15T18:56:56.125Z,26.83
2023-03-15T18:59:40.148Z,15.87
2023-03-15T19:02:24.134Z,23.63
2023-03-15T19:05:09.092Z,23.33
2023-03-15T19:07:54.547Z,22.20
2023-03-15T19:10:38.361Z,21.60
2023-03-15T19:13:22.296Z,21.70
2023-03-15T19:16:06.827Z,23.27
2023-03-15T19:18:51.712Z,41.77
2023-03-15T19:21:35.666Z,25.40
2023-03-15T19:24:20.916Z,24.43
2023-03-15T19:27:05.118Z,21.70
2023-03-15T19:29:49.020Z,20.70
2023-03-15T19:32:33.097Z,22.00
2023-03-15T19:35:17.896Z,25.20
2023-03-15T19:38:02.708Z,27.53
2023-03-15T19:40:48.225Z,27.83
2023-03-15T19:43:32.811Z,25.37
2023-03-15T19:46:18.076Z,22.70
2023-03-15T19:49:02.466Z,21.80
2023-03-15T19:51:46.461Z,21.10
2023-03-15T19:54:34.098Z,29.20
2023-03-15T19:57:19.453Z,21.43
2023-03-15T20:00:03.743Z,23.17
2023-03-15T20:02:49.117Z,24.67
2023-03-15T20:05:33.079Z,24.10
2023-03-15T20:08:17.258Z,20.37
2023-03-15T20:11:01.421Z,23.03
2023-03-15T20:13:47.646Z,25.27
2023-03-15T20:16:32.251Z,27.20
2023-03-15T20:19:16.406Z,25.83
2023-03-15T20:22:00.341Z,24.53
2023-03-15T20:24:44.461Z,23.77
2023-03-15T20:27:28.660Z,23.90
2023-03-15T20:30:16.387Z,20.40
2023-03-15T20:33:00.579Z,22.70
2023-03-15T20:35:44.592Z,21.97
2023-03-15T20:38:29.420Z,20.27
2023-03-15T20:41:14.479Z,22.17
2023-03-15T20:43:58.477Z,21.00
2023-03-15T20:46:44.109Z,19.57
2023-03-15T20:49:29.347Z,19.43
2023-03-15T20:52:13.522Z,21.30
2023-03-15T20:54:57.461Z,20.43
2023-03-15T20:57:42.818Z,20.37
2023-03-15T21:00:30.172Z,23.33
2023-03-15T21:03:17.670Z,25.70
2023-03-15T21:06:02.195Z,23.90
2023-03-15T21:08:46.096Z,21.00
2023-03-15T21:11:30.581Z,20.10
2023-03-15T21:14:14.844Z,19.23
2023-03-15T21:17:00.153Z,21.57
2023-03-15T21:19:45.379Z,19.87
2023-03-15T21:22:29.261Z,24.30
2023-03-15T21:25:14.534Z,18.67
2023-03-15T21:27:58.364Z,22.13
2023-03-15T21:30:42.519Z,20.93
2023-03-15T21:33:27.993Z,20.67
2023-03-15T21:36:13.230Z,20.87
2023-03-15T21:38:57.095Z,18.40
2023-03-15T21:41:41.294Z,16.97
2023-03-15T21:44:25.368Z,16.93
2023-03-15T21:47:09.152Z,16.87
2023-03-15T21:49:54.142Z,18.60
2023-03-15T21:52:39.486Z,16.73
2023-03-15T21:55:23.350Z,17.47
2023-03-15T21:58:07.099Z,17.53
2023-03-15T22:00:51.378Z,20.07
2023-03-15T22:03:36.391Z,20.27
2023-03-15T22:06:20.314Z,19.90
2023-03-15T22:09:05.641Z,20.30
2023-03-15T22:11:49.887Z,18.10
2023-03-15T22:14:33.599Z,18.83
2023-03-15T22:17:17.479Z,18.43
2023-03-15T22:20:01.279Z,17.43
2023-03-15T22:22:47.301Z,19.33
2023-03-15T22:25:32.566Z,18.83
2023-03-15T22:28:16.696Z,20.63
2023-03-15T22:31:01.746Z,27.83
2023-03-15T22:33:46.218Z,18.70
2023-03-15T22:36:30.189Z,19.17
2023-03-15T22:39:14.434Z,19.67
2023-03-15T22:41:59.638Z,23.23
2023-03-15T22:44:43.368Z,23.40
2023-03-15T22:47:27.286Z,22.57
2023-03-15T22:50:12.570Z,20.67
2023-03-15T22:52:56.689Z,19.87
2023-03-15T22:55:40.522Z,20.07
2023-03-15T22:58:26.179Z,20.43
2023-03-15T23:01:10.405Z,20.67
2023-03-15T23:03:54.199Z,20.87
2023-03-15T23:06:38.060Z,19.10
2023-03-15T23:09:22.633Z,22.37
2023-03-15T23:12:07.057Z,20.37
2023-03-15T23:14:52.506Z,21.93
2023-03-15T23:17:36.347Z,20.03
2023-03-15T23:20:20.760Z,22.83
2023-03-15T23:23:04.491Z,24.77
2023-03-15T23:25:48.468Z,22.63
2023-03-15T23:28:32.265Z,21.13
2023-03-15T23:31:17.459Z,21.27
2023-03-15T23:34:01.348Z,20.10
2023-03-15T23:36:45.519Z,19.30
2023-03-15T23:39:29.823Z,21.27
2023-03-15T23:42:13.998Z,20.60
2023-03-15T23:44:57.800Z,22.33
2023-03-15T23:47:43.339Z,19.47
2023-03-15T23:50:28.292Z,18.27
2023-03-15T23:53:12.424Z,19.90
2023-03-15T23:55:56.470Z,19.53
2023-03-15T23:58:40.792Z,21.47
